Yap International Airport
PTYA : now visible

Airfield :











YOU CAN JOIN US ON...

 
LOGIN :

Register | Disclaimer

   EN    FR    IT 

 









Legend :    VFR   Marginal VFR   IFR   Intensive IFR   Very Intensive IFR
Visi :
Ceiling :
>= 8 km
>= 3000ft
5 to 8 km
1000 to 3000 ft
1500m to 5 km
500 to 1000 ft
800 to 1500m
200 to 500 ft
< 800m
< 200 ft
Symbols :   Thunderstorms  Fog  Heavy snow  Heavy precipitations  Wind > 20 kt






- Airport Elevation : 91 ft
- IATA code : YAP


PTYA - Yap International

CURRENT METAR :
  • 290353Z 10011KT 12SM FEW017 SCT300 33/29 A2984 RMK SLP105 T03340286

EXPIRED METARs :
  • 290252Z 08011KT 12SM FEW017 SCT300 34/28 A2984 RMK SLP107 8/101 T03380282 58022
  • 290152Z 08010KT 12SM FEW017 SCT300 34/29 A2986 RMK SLP112 T03430292
  • 290055Z 10010KT 12SM FEW017 SCT300 32/27 A2989 RMK SLP122 T03200274

TAF PTYA
Valid from the 29 at 00:00 until the 30 at 00:00 UTC


282324Z 2900/2924 08010KT P6SM VCSH SCT015 BKN130
TEMPO 2901/2905 10015G25KT 3SM SHRA BKN015 OVC030
KZOA FIR / Oceania



MET'MAP, your aeronautical weather chart ! - Copyright ORBIFLY December 2007 - Disclaimer

ORBIFLY MET'MAP TEAM :

Programming & Development : Alexandra Zaïnal
Original concept : Baudouin d'Aumeries
Technical & hardware support : Manuel Goepfert
Assistance : Marc-Olivier Méhu




SOURCES & CREDITS :

   NOAA       Earth
Advisory